RAAF Base Amberley
YAMB : now visible

Airfield :











YOU CAN JOIN US ON...

 
LOGIN :

Register | Disclaimer

   EN    FR    IT 

 









Legend :    VFR   Marginal VFR   IFR   Intensive IFR   Very Intensive IFR
Visi :
Ceiling :
>= 8 km
>= 3000ft
5 to 8 km
1000 to 3000 ft
1500m to 5 km
500 to 1000 ft
800 to 1500m
200 to 500 ft
< 800m
< 200 ft
Symbols :   Thunderstorms  Fog  Heavy snow  Heavy precipitations  Wind > 20 kt






- Airport Elevation : 91 ft


YAMB - RAAF Base Amberley

CURRENT METAR :
  • 301300Z AUTO 00000KT 9999 // NCD 19/16 Q1008

EXPIRED METARs :
  • 301230Z AUTO 00000KT 9999 // NCD 19/16 Q1008
  • 301200Z AUTO 08006KT 9999 // NCD 22/18 Q1008
  • 301130Z AUTO 10008KT 9999 // NCD 22/18 Q1008
  • 301100Z AUTO 09007KT 9999 // NCD 23/17 Q1008
  • 301030Z AUTO 07005KT 9999 // NCD 23/17 Q1008

TAF AMD TAF YAMB
Valid from the 30 at 12:00 until the 31 at 12:00 UTC


301103Z 3012/3112 06008KT CAVOK
FM301600 VRB03KT 9999 SCT020
FM302200 34010KT 9999 -SHRA SCT035
FM310500 35015KT 9999 -SHRA SCT030 BKN050
FM311100 VRB04KT 9999 NSW SCT010
PROB40
TEMPO 3103/3111 VRB25G50KT 1000 TSRAGR BKN012 SCT040CB
YBBB FIR / Oceania



MET'MAP, your aeronautical weather chart ! - Copyright ORBIFLY December 2007 - Disclaimer

ORBIFLY MET'MAP TEAM :

Programming & Development : Alexandra Zaïnal
Concept & original design : Baudouin d'Aumeries
Assistance for programming : Marc-Olivier Méhu
Technical & hardware support : Manuel Goepfert

Contact : metmap@orbifly.com




SOURCES & CREDITS :

   NOAA       Earth
Advisory